createdAt,value
2023-03-22T00:01:25.658Z,9.20
2023-03-22T00:03:54.331Z,9.33
2023-03-22T00:06:22.878Z,9.03
2023-03-22T00:08:52.650Z,8.90
2023-03-22T00:11:24.344Z,9.17
2023-03-22T00:13:53.796Z,9.27
2023-03-22T00:16:23.401Z,8.73
2023-03-22T00:19:01.586Z,9.33
2023-03-22T00:21:31.392Z,8.93
2023-03-22T00:23:59.871Z,8.80
2023-03-22T00:26:29.694Z,9.20
2023-03-22T00:28:58.216Z,8.90
2023-03-22T00:31:26.785Z,8.90
2023-03-22T00:33:55.748Z,9.30
2023-03-22T00:36:25.061Z,8.90
2023-03-22T00:38:54.019Z,9.33
2023-03-22T00:41:24.403Z,8.80
2023-03-22T00:43:54.534Z,8.80
2023-03-22T00:46:23.482Z,9.70
2023-03-22T00:48:53.267Z,9.00
2023-03-22T00:51:25.763Z,9.20
2023-03-22T00:53:55.202Z,9.10
2023-03-22T00:56:25.858Z,9.23
2023-03-22T00:59:13.696Z,9.10
2023-03-22T01:01:44.329Z,9.03
2023-03-22T01:04:15.843Z,9.17
2023-03-22T01:06:45.141Z,9.10
2023-03-22T01:09:15.493Z,9.57
2023-03-22T01:11:46.407Z,9.10
2023-03-22T01:14:16.912Z,9.13
2023-03-22T01:16:46.389Z,9.10
2023-03-22T01:19:15.926Z,9.27
2023-03-22T01:21:46.177Z,9.23
2023-03-22T01:24:15.959Z,9.40
2023-03-22T01:26:51.480Z,9.13
2023-03-22T01:29:39.516Z,9.13
2023-03-22T01:32:09.484Z,9.10
2023-03-22T01:34:40.069Z,9.10
2023-03-22T01:37:10.807Z,9.10
2023-03-22T01:39:43.799Z,9.13
2023-03-22T01:42:18.827Z,9.20
2023-03-22T01:45:40.743Z,9.20
2023-03-22T01:48:18.842Z,9.13
2023-03-22T01:50:59.924Z,9.30
2023-03-22T01:53:32.186Z,9.40
2023-03-22T01:56:02.069Z,9.10
2023-03-22T01:58:46.202Z,8.80
2023-03-22T02:01:20.685Z,9.30
2023-03-22T02:03:57.297Z,9.20
2023-03-22T02:06:30.048Z,9.00
2023-03-22T02:09:08.378Z,9.00
2023-03-22T02:11:41.699Z,9.70
2023-03-22T02:14:49.239Z,8.80
2023-03-22T02:17:36.206Z,9.50
2023-03-22T02:21:10.056Z,9.13
2023-03-22T02:24:19.333Z,9.13
2023-03-22T02:27:27.279Z,9.30
2023-03-22T02:30:11.174Z,9.70
2023-03-22T02:33:06.151Z,9.20
2023-03-22T02:35:50.645Z,9.17
2023-03-22T02:39:04.700Z,9.70
2023-03-22T02:41:46.703Z,9.30
2023-03-22T02:44:25.789Z,9.77
2023-03-22T02:47:03.681Z,9.30
2023-03-22T02:49:39.122Z,9.70
2023-03-22T02:52:18.577Z,9.03
2023-03-22T02:54:57.541Z,9.17
2023-03-22T02:57:35.370Z,9.33
2023-03-22T03:00:10.661Z,9.20
2023-03-22T03:02:43.844Z,9.30
2023-03-22T03:05:15.454Z,9.10
2023-03-22T03:07:50.033Z,9.00
2023-03-22T03:10:22.828Z,9.90
2023-03-22T03:12:54.376Z,9.57
2023-03-22T03:15:26.108Z,9.50
2023-03-22T03:18:17.797Z,9.40
2023-03-22T03:24:19.424Z,9.43
2023-03-22T03:26:59.124Z,9.43
2023-03-22T03:29:43.843Z,9.83
2023-03-22T03:32:27.708Z,9.47
2023-03-22T03:35:01.061Z,9.63
2023-03-22T03:37:36.844Z,9.17
2023-03-22T03:40:13.948Z,9.13
2023-03-22T03:42:49.045Z,9.70
2023-03-22T03:45:19.886Z,9.67
2023-03-22T03:47:55.462Z,9.47
2023-03-22T03:50:28.370Z,9.90
2023-03-22T03:52:58.654Z,9.60
2023-03-22T03:55:29.250Z,9.40
2023-03-22T03:57:59.812Z,9.93
2023-03-22T04:00:28.885Z,9.43
2023-03-22T04:03:17.730Z,9.57
2023-03-22T04:06:37.374Z,9.83
2023-03-22T04:09:06.008Z,9.80
2023-03-22T04:11:41.620Z,9.80
2023-03-22T04:14:12.276Z,9.70
2023-03-22T04:16:42.468Z,9.80
2023-03-22T04:19:19.296Z,9.50
2023-03-22T04:21:53.367Z,9.70
2023-03-22T04:24:24.037Z,10.10
2023-03-22T04:26:54.379Z,9.80
2023-03-22T04:29:32.291Z,9.87
2023-03-22T04:32:26.282Z,10.27
2023-03-22T04:34:57.862Z,10.20
2023-03-22T04:37:27.941Z,9.90
2023-03-22T04:40:09.350Z,9.43
2023-03-22T04:42:46.649Z,9.93
2023-03-22T04:45:29.302Z,9.70
2023-03-22T04:48:01.769Z,9.73
2023-03-22T04:50:31.714Z,9.30
2023-03-22T04:53:04.113Z,10.00
2023-03-22T04:55:34.221Z,10.00
2023-03-22T04:58:03.224Z,10.10
2023-03-22T05:00:33.051Z,10.27
2023-03-22T05:03:04.220Z,10.27
2023-03-22T05:05:40.765Z,9.93
2023-03-22T05:08:09.284Z,9.90
2023-03-22T05:10:41.642Z,9.47
2023-03-22T05:13:11.032Z,9.97
2023-03-22T05:15:47.409Z,10.10
2023-03-22T05:18:18.148Z,9.50
2023-03-22T05:20:46.581Z,9.93
2023-03-22T05:23:22.347Z,9.90
2023-03-22T05:25:58.272Z,9.77
2023-03-22T05:28:28.705Z,10.03
2023-03-22T05:31:17.192Z,9.90
2023-03-22T05:33:51.856Z,9.63
2023-03-22T05:36:23.993Z,9.90
2023-03-22T05:39:18.577Z,9.93
2023-03-22T05:41:47.048Z,9.70
2023-03-22T05:44:15.820Z,10.00
2023-03-22T05:46:55.456Z,10.40
2023-03-22T05:49:32.397Z,9.43
2023-03-22T05:52:04.329Z,9.97
2023-03-22T05:54:46.736Z,9.70
2023-03-22T05:57:17.254Z,9.70
2023-03-22T05:59:46.619Z,9.63
2023-03-22T06:02:24.245Z,9.70
2023-03-22T06:04:55.862Z,9.77
2023-03-22T06:07:27.064Z,9.60
2023-03-22T06:09:58.382Z,9.53
2023-03-22T06:12:30.228Z,9.90
2023-03-22T06:15:13.420Z,9.70
2023-03-22T06:17:54.137Z,9.63
2023-03-22T06:20:26.884Z,9.73
2023-03-22T06:23:01.899Z,10.03
2023-03-22T06:25:30.281Z,9.40
2023-03-22T06:27:58.742Z,9.50
2023-03-22T06:30:27.704Z,9.80
2023-03-22T06:33:10.833Z,10.27
2023-03-22T06:35:42.539Z,9.93
2023-03-22T06:38:14.575Z,9.83
2023-03-22T06:40:44.085Z,10.27
2023-03-22T06:43:12.872Z,9.93
2023-03-22T06:45:47.221Z,10.00
2023-03-22T06:51:52.239Z,10.10
2023-03-22T06:54:21.613Z,9.80
2023-03-22T06:56:50.003Z,9.67
2023-03-22T06:59:18.386Z,9.50
2023-03-22T07:01:46.860Z,10.20
2023-03-22T07:04:15.555Z,10.40
2023-03-22T07:06:45.484Z,10.43
2023-03-22T07:09:15.656Z,9.97
2023-03-22T07:11:43.967Z,10.07
2023-03-22T07:14:12.490Z,9.80
2023-03-22T07:17:00.492Z,10.10
2023-03-22T07:19:31.372Z,10.03
2023-03-22T07:22:02.405Z,10.17
2023-03-22T07:24:32.383Z,10.37
2023-03-22T07:27:02.999Z,9.57
2023-03-22T07:29:31.631Z,9.93
2023-03-22T07:32:02.340Z,9.83
2023-03-22T07:34:42.199Z,9.73
2023-03-22T07:37:16.443Z,9.97
2023-03-22T07:39:46.462Z,9.53
2023-03-22T07:42:14.892Z,10.03
2023-03-22T07:44:43.247Z,9.77
2023-03-22T07:47:37.775Z,10.00
2023-03-22T07:50:20.905Z,9.90
2023-03-22T07:52:55.277Z,9.43
2023-03-22T07:55:25.062Z,9.80
2023-03-22T07:57:54.119Z,10.10
2023-03-22T08:00:23.566Z,9.60
2023-03-22T08:03:02.970Z,9.90
2023-03-22T08:05:45.276Z,9.80
2023-03-22T08:08:16.541Z,10.47
2023-03-22T08:10:51.931Z,9.83
2023-03-22T08:13:20.691Z,9.90
2023-03-22T08:15:49.184Z,10.30
2023-03-22T08:18:20.113Z,9.83
2023-03-22T08:20:48.488Z,9.87
2023-03-22T08:23:31.700Z,10.23
2023-03-22T08:26:34.216Z,10.27
2023-03-22T08:29:12.398Z,10.37
2023-03-22T08:31:40.987Z,9.77
2023-03-22T08:34:09.439Z,10.73
2023-03-22T08:36:39.498Z,10.60
2023-03-22T08:39:08.400Z,10.27
2023-03-22T08:42:04.827Z,10.30
2023-03-22T08:44:33.537Z,9.53
2023-03-22T08:47:04.022Z,9.87
2023-03-22T08:49:33.217Z,9.73
2023-03-22T08:52:09.468Z,9.70
2023-03-22T08:54:45.361Z,9.80
2023-03-22T08:57:38.970Z,9.53
2023-03-22T09:00:25.037Z,9.87
2023-03-22T09:03:02.443Z,9.70
2023-03-22T09:05:30.781Z,9.67
2023-03-22T09:08:06.044Z,9.40
2023-03-22T09:11:01.327Z,9.30
2023-03-22T09:13:33.108Z,9.30
2023-03-22T09:16:04.115Z,9.40
2023-03-22T09:18:34.545Z,9.17
2023-03-22T09:21:08.600Z,9.30
2023-03-22T09:23:47.761Z,9.20
2023-03-22T09:26:18.047Z,8.97
2023-03-22T09:28:51.433Z,9.17
2023-03-22T09:31:20.795Z,8.73
2023-03-22T09:33:56.105Z,9.10
2023-03-22T09:36:24.497Z,8.93
2023-03-22T09:38:52.811Z,9.00
2023-03-22T09:41:26.572Z,9.00
2023-03-22T09:43:59.446Z,8.80
2023-03-22T09:46:32.674Z,8.70
2023-03-22T09:49:03.219Z,8.90
2023-03-22T09:51:39.993Z,8.80
2023-03-22T09:54:15.429Z,8.70
2023-03-22T09:56:46.550Z,8.73
2023-03-22T09:59:23.516Z,8.60
2023-03-22T10:01:58.152Z,9.03
2023-03-22T10:04:49.795Z,8.70
2023-03-22T10:07:29.832Z,8.70
2023-03-22T10:10:13.276Z,8.47
2023-03-22T10:12:50.455Z,8.83
2023-03-22T10:15:27.688Z,8.40
2023-03-22T10:17:58.707Z,8.73
2023-03-22T10:20:38.261Z,8.23
2023-03-22T10:23:12.355Z,8.50
2023-03-22T10:25:43.151Z,8.67
2023-03-22T10:28:18.271Z,8.30
2023-03-22T10:30:53.564Z,8.27
2023-03-22T10:33:34.947Z,8.33
2023-03-22T10:36:06.459Z,8.40
2023-03-22T10:38:40.694Z,8.10
2023-03-22T10:41:10.508Z,8.50
2023-03-22T10:43:40.631Z,8.50
2023-03-22T10:46:20.038Z,8.50
2023-03-22T10:48:51.817Z,8.33
2023-03-22T10:51:29.031Z,8.17
2023-03-22T10:53:58.268Z,8.40
2023-03-22T10:56:27.138Z,8.37
2023-03-22T10:58:57.798Z,8.37
2023-03-22T11:01:31.526Z,8.50
2023-03-22T11:04:06.528Z,8.43
2023-03-22T11:06:40.727Z,8.77
2023-03-22T11:09:16.777Z,8.73
2023-03-22T11:11:53.276Z,8.50
2023-03-22T11:14:27.792Z,8.13
2023-03-22T11:17:00.995Z,8.23
2023-03-22T11:19:35.496Z,8.53
2023-03-22T11:22:08.531Z,8.30
2023-03-22T11:24:37.544Z,8.50
2023-03-22T11:27:08.475Z,8.13
2023-03-22T11:29:46.472Z,8.07
2023-03-22T11:32:27.747Z,8.47
2023-03-22T11:35:11.631Z,8.47
2023-03-22T11:37:43.657Z,8.30
2023-03-22T11:40:17.813Z,8.27
2023-03-22T11:42:47.072Z,8.13
2023-03-22T11:45:17.782Z,8.20
2023-03-22T11:47:47.723Z,8.23
2023-03-22T11:50:28.741Z,8.00
2023-03-22T11:52:57.692Z,8.10
2023-03-22T11:55:27.149Z,8.23
2023-03-22T11:57:57.008Z,8.30
2023-03-22T12:00:28.329Z,8.33
2023-03-22T12:03:03.928Z,8.43
2023-03-22T12:05:34.940Z,8.43
2023-03-22T12:08:12.142Z,8.30
2023-03-22T12:10:43.915Z,8.47
2023-03-22T12:13:21.826Z,8.50
2023-03-22T12:15:55.472Z,8.50
2023-03-22T12:18:31.088Z,8.33
2023-03-22T12:21:01.174Z,8.30
2023-03-22T12:23:31.858Z,8.20
2023-03-22T12:26:04.468Z,8.27
2023-03-22T12:28:40.594Z,8.20
2023-03-22T12:31:16.375Z,8.33
2023-03-22T12:33:50.504Z,8.30
2023-03-22T12:36:24.998Z,8.40
2023-03-22T12:38:57.072Z,8.27
2023-03-22T12:41:29.223Z,8.10
2023-03-22T12:44:00.502Z,8.17
2023-03-22T12:46:33.060Z,8.30
2023-03-22T12:49:08.219Z,8.40
2023-03-22T12:51:37.776Z,8.40
2023-03-22T12:54:06.960Z,8.27
2023-03-22T12:56:41.684Z,8.10
2023-03-22T12:59:18.493Z,8.20
2023-03-22T13:01:52.303Z,8.30
2023-03-22T13:04:48.669Z,8.20
2023-03-22T13:07:34.617Z,8.00
2023-03-22T13:11:01.353Z,8.00
2023-03-22T13:13:47.828Z,8.20
2023-03-22T13:16:22.880Z,8.30
2023-03-22T13:19:18.564Z,8.00
2023-03-22T13:21:50.219Z,8.10
2023-03-22T13:24:24.213Z,8.20
2023-03-22T13:26:55.508Z,8.00
2023-03-22T13:29:26.436Z,8.27
2023-03-22T13:31:58.734Z,8.00
2023-03-22T13:34:40.852Z,8.00
2023-03-22T13:37:31.200Z,8.00
2023-03-22T13:40:02.260Z,8.03
2023-03-22T13:42:37.311Z,8.40
2023-03-22T13:45:18.716Z,8.10
2023-03-22T13:47:48.393Z,8.10
2023-03-22T13:50:20.389Z,8.30
2023-03-22T13:53:00.853Z,8.20
2023-03-22T13:55:59.427Z,8.40
2023-03-22T13:58:38.813Z,8.10
2023-03-22T14:01:15.511Z,8.00
2023-03-22T14:03:47.641Z,8.20
2023-03-22T14:06:20.659Z,7.73
2023-03-22T14:08:55.863Z,8.33
2023-03-22T14:11:30.496Z,7.73
2023-03-22T14:14:05.130Z,8.00
2023-03-22T14:16:40.432Z,8.00
2023-03-22T14:19:17.246Z,7.90
